sensor_id;sensor_type;location;lat;lon;timestamp;temperature;humidity
62581;DHT22;48640;48.770;9.148;2023-04-25T00:00:48;9.50;91.60
62581;DHT22;48640;48.770;9.148;2023-04-25T00:03:15;10.00;91.40
62581;DHT22;48640;48.770;9.148;2023-04-25T00:05:45;10.10;90.90
62581;DHT22;48640;48.770;9.148;2023-04-25T00:08:12;10.00;91.00
62581;DHT22;48640;48.770;9.148;2023-04-25T00:10:39;9.90;91.60
62581;DHT22;48640;48.770;9.148;2023-04-25T00:13:07;9.60;91.70
62581;DHT22;48640;48.770;9.148;2023-04-25T00:15:34;9.90;92.20
62581;DHT22;48640;48.770;9.148;2023-04-25T00:18:03;9.90;92.40
62581;DHT22;48640;48.770;9.148;2023-04-25T00:20:31;9.80;92.20
62581;DHT22;48640;48.770;9.148;2023-04-25T00:22:58;9.80;92.40
62581;DHT22;48640;48.770;9.148;2023-04-25T00:25:25;9.60;92.30
62581;DHT22;48640;48.770;9.148;2023-04-25T00:27:55;9.30;92.30
62581;DHT22;48640;48.770;9.148;2023-04-25T00:30:24;9.70;92.70
62581;DHT22;48640;48.770;9.148;2023-04-25T00:32:51;9.30;92.40
62581;DHT22;48640;48.770;9.148;2023-04-25T00:35:18;9.10;92.40
62581;DHT22;48640;48.770;9.148;2023-04-25T00:37:46;9.30;92.50
62581;DHT22;48640;48.770;9.148;2023-04-25T00:40:13;9.20;92.40
62581;DHT22;48640;48.770;9.148;2023-04-25T00:42:40;9.40;92.50
62581;DHT22;48640;48.770;9.148;2023-04-25T00:45:09;9.20;92.40
62581;DHT22;48640;48.770;9.148;2023-04-25T00:47:40;9.50;92.50
62581;DHT22;48640;48.770;9.148;2023-04-25T00:50:08;9.20;92.20
62581;DHT22;48640;48.770;9.148;2023-04-25T00:52:35;9.60;92.20
62581;DHT22;48640;48.770;9.148;2023-04-25T00:55:03;9.30;91.90
62581;DHT22;48640;48.770;9.148;2023-04-25T00:57:30;9.80;92.10
62581;DHT22;48640;48.770;9.148;2023-04-25T00:59:57;9.70;92.00
62581;DHT22;48640;48.770;9.148;2023-04-25T01:02:26;9.30;91.90
62581;DHT22;48640;48.770;9.148;2023-04-25T01:04:55;9.90;92.40
62581;DHT22;48640;48.770;9.148;2023-04-25T01:07:22;9.10;92.20
62581;DHT22;48640;48.770;9.148;2023-04-25T01:09:48;9.90;92.80
62581;DHT22;48640;48.770;9.148;2023-04-25T01:12:17;9.70;92.60
62581;DHT22;48640;48.770;9.148;2023-04-25T01:14:44;9.90;92.60
62581;DHT22;48640;48.770;9.148;2023-04-25T01:17:12;9.70;92.40
62581;DHT22;48640;48.770;9.148;2023-04-25T01:19:40;9.80;92.70
62581;DHT22;48640;48.770;9.148;2023-04-25T01:22:09;9.80;92.60
62581;DHT22;48640;48.770;9.148;2023-04-25T01:24:37;9.60;92.50
62581;DHT22;48640;48.770;9.148;2023-04-25T01:27:04;9.70;93.00
62581;DHT22;48640;48.770;9.148;2023-04-25T01:29:32;9.80;93.40
62581;DHT22;48640;48.770;9.148;2023-04-25T01:31:59;9.90;93.10
62581;DHT22;48640;48.770;9.148;2023-04-25T01:34:26;9.90;92.90
62581;DHT22;48640;48.770;9.148;2023-04-25T01:36:53;9.80;92.80
62581;DHT22;48640;48.770;9.148;2023-04-25T01:39:22;9.40;92.70
62581;DHT22;48640;48.770;9.148;2023-04-25T01:41:49;9.20;92.70
62581;DHT22;48640;48.770;9.148;2023-04-25T01:44:16;9.20;93.10
62581;DHT22;48640;48.770;9.148;2023-04-25T01:46:43;9.20;93.00
62581;DHT22;48640;48.770;9.148;2023-04-25T01:49:10;9.70;93.10
62581;DHT22;48640;48.770;9.148;2023-04-25T01:51:37;9.30;93.10
62581;DHT22;48640;48.770;9.148;2023-04-25T01:54:04;9.30;93.30
62581;DHT22;48640;48.770;9.148;2023-04-25T01:56:32;9.50;94.00
62581;DHT22;48640;48.770;9.148;2023-04-25T01:58:59;9.40;93.80
62581;DHT22;48640;48.770;9.148;2023-04-25T02:01:26;9.60;93.80
62581;DHT22;48640;48.770;9.148;2023-04-25T02:03:53;9.20;93.40
62581;DHT22;48640;48.770;9.148;2023-04-25T02:06:20;9.40;93.50
62581;DHT22;48640;48.770;9.148;2023-04-25T02:08:47;9.60;93.70
62581;DHT22;48640;48.770;9.148;2023-04-25T02:11:14;9.50;93.70
62581;DHT22;48640;48.770;9.148;2023-04-25T02:13:42;9.00;93.90
62581;DHT22;48640;48.770;9.148;2023-04-25T02:16:09;9.10;94.50
62581;DHT22;48640;48.770;9.148;2023-04-25T02:18:35;9.60;94.80
62581;DHT22;48640;48.770;9.148;2023-04-25T02:21:04;9.40;94.60
62581;DHT22;48640;48.770;9.148;2023-04-25T02:23:32;9.40;95.00
62581;DHT22;48640;48.770;9.148;2023-04-25T02:25:59;9.40;94.60
62581;DHT22;48640;48.770;9.148;2023-04-25T02:28:26;9.30;94.90
62581;DHT22;48640;48.770;9.148;2023-04-25T02:30:54;8.80;94.70
62581;DHT22;48640;48.770;9.148;2023-04-25T02:33:21;8.80;94.80
62581;DHT22;48640;48.770;9.148;2023-04-25T02:35:48;8.90;94.90
62581;DHT22;48640;48.770;9.148;2023-04-25T02:38:14;9.30;95.00
62581;DHT22;48640;48.770;9.148;2023-04-25T02:40:41;9.50;95.00
62581;DHT22;48640;48.770;9.148;2023-04-25T02:43:08;9.30;95.10
62581;DHT22;48640;48.770;9.148;2023-04-25T02:45:35;9.10;95.00
62581;DHT22;48640;48.770;9.148;2023-04-25T02:48:05;9.10;95.10
62581;DHT22;48640;48.770;9.148;2023-04-25T02:50:31;9.30;94.90
62581;DHT22;48640;48.770;9.148;2023-04-25T02:52:58;9.20;94.80
62581;DHT22;48640;48.770;9.148;2023-04-25T02:55:25;9.10;94.60
62581;DHT22;48640;48.770;9.148;2023-04-25T02:57:52;9.00;94.10
62581;DHT22;48640;48.770;9.148;2023-04-25T03:00:20;9.20;94.20
62581;DHT22;48640;48.770;9.148;2023-04-25T03:02:47;9.20;94.20
62581;DHT22;48640;48.770;9.148;2023-04-25T03:05:16;8.80;94.00
62581;DHT22;48640;48.770;9.148;2023-04-25T03:07:43;8.90;94.30
62581;DHT22;48640;48.770;9.148;2023-04-25T03:10:11;8.70;94.20
62581;DHT22;48640;48.770;9.148;2023-04-25T03:12:38;9.00;94.30
62581;DHT22;48640;48.770;9.148;2023-04-25T03:15:06;8.70;94.60
62581;DHT22;48640;48.770;9.148;2023-04-25T03:17:33;9.00;94.90
62581;DHT22;48640;48.770;9.148;2023-04-25T03:20:00;8.90;94.70
62581;DHT22;48640;48.770;9.148;2023-04-25T03:22:30;9.10;94.50
62581;DHT22;48640;48.770;9.148;2023-04-25T03:24:57;9.00;94.50
62581;DHT22;48640;48.770;9.148;2023-04-25T03:27:24;9.00;94.40
62581;DHT22;48640;48.770;9.148;2023-04-25T03:29:51;8.60;94.30
62581;DHT22;48640;48.770;9.148;2023-04-25T03:32:18;9.00;94.10
62581;DHT22;48640;48.770;9.148;2023-04-25T03:34:45;8.70;94.00
62581;DHT22;48640;48.770;9.148;2023-04-25T03:37:11;9.20;94.30
62581;DHT22;48640;48.770;9.148;2023-04-25T03:39:39;8.70;94.00
62581;DHT22;48640;48.770;9.148;2023-04-25T03:42:06;8.50;93.90
62581;DHT22;48640;48.770;9.148;2023-04-25T03:44:33;8.90;94.30
62581;DHT22;48640;48.770;9.148;2023-04-25T03:47:00;8.80;94.40
62581;DHT22;48640;48.770;9.148;2023-04-25T03:49:27;8.80;94.90
62581;DHT22;48640;48.770;9.148;2023-04-25T03:51:53;8.90;94.90
62581;DHT22;48640;48.770;9.148;2023-04-25T03:54:20;8.60;94.50
62581;DHT22;48640;48.770;9.148;2023-04-25T03:56:48;8.70;94.40
62581;DHT22;48640;48.770;9.148;2023-04-25T03:59:15;9.00;94.60
62581;DHT22;48640;48.770;9.148;2023-04-25T04:01:42;8.70;94.80
62581;DHT22;48640;48.770;9.148;2023-04-25T04:04:09;9.30;94.90
62581;DHT22;48640;48.770;9.148;2023-04-25T04:06:35;9.10;94.80
62581;DHT22;48640;48.770;9.148;2023-04-25T04:09:02;8.30;94.30
62581;DHT22;48640;48.770;9.148;2023-04-25T04:11:29;8.50;94.60
62581;DHT22;48640;48.770;9.148;2023-04-25T04:13:58;8.70;94.80
62581;DHT22;48640;48.770;9.148;2023-04-25T04:16:25;8.80;95.00
62581;DHT22;48640;48.770;9.148;2023-04-25T04:18:51;8.40;95.10
62581;DHT22;48640;48.770;9.148;2023-04-25T04:21:18;8.20;95.10
62581;DHT22;48640;48.770;9.148;2023-04-25T04:23:45;8.30;95.20
62581;DHT22;48640;48.770;9.148;2023-04-25T04:26:13;8.30;95.30
62581;DHT22;48640;48.770;9.148;2023-04-25T04:28:42;8.30;95.60
62581;DHT22;48640;48.770;9.148;2023-04-25T04:31:10;8.40;95.50
62581;DHT22;48640;48.770;9.148;2023-04-25T04:33:38;8.40;95.40
62581;DHT22;48640;48.770;9.148;2023-04-25T04:36:05;8.60;95.40
62581;DHT22;48640;48.770;9.148;2023-04-25T04:38:33;8.80;95.40
62581;DHT22;48640;48.770;9.148;2023-04-25T04:41:00;8.90;95.50
62581;DHT22;48640;48.770;9.148;2023-04-25T04:43:26;8.60;95.20
62581;DHT22;48640;48.770;9.148;2023-04-25T04:45:54;8.60;95.40
62581;DHT22;48640;48.770;9.148;2023-04-25T04:48:23;8.50;95.30
62581;DHT22;48640;48.770;9.148;2023-04-25T04:50:50;8.80;95.50
62581;DHT22;48640;48.770;9.148;2023-04-25T04:53:16;8.70;95.50
62581;DHT22;48640;48.770;9.148;2023-04-25T04:55:43;8.70;95.10
62581;DHT22;48640;48.770;9.148;2023-04-25T04:58:11;9.10;95.20
62581;DHT22;48640;48.770;9.148;2023-04-25T05:00:38;8.60;94.90
62581;DHT22;48640;48.770;9.148;2023-04-25T05:03:05;9.40;95.30
62581;DHT22;48640;48.770;9.148;2023-04-25T05:05:33;8.70;95.20
62581;DHT22;48640;48.770;9.148;2023-04-25T05:08:00;9.00;95.30
62581;DHT22;48640;48.770;9.148;2023-04-25T05:10:27;9.10;95.30
62581;DHT22;48640;48.770;9.148;2023-04-25T05:12:54;8.80;95.00
62581;DHT22;48640;48.770;9.148;2023-04-25T05:15:20;9.00;94.70
62581;DHT22;48640;48.770;9.148;2023-04-25T05:17:47;9.00;94.40
62581;DHT22;48640;48.770;9.148;2023-04-25T05:20:14;9.30;95.10
62581;DHT22;48640;48.770;9.148;2023-04-25T05:22:42;9.50;95.10
62581;DHT22;48640;48.770;9.148;2023-04-25T05:25:09;9.20;94.60
62581;DHT22;48640;48.770;9.148;2023-04-25T05:27:36;9.10;94.40
62581;DHT22;48640;48.770;9.148;2023-04-25T05:30:04;9.80;94.20
62581;DHT22;48640;48.770;9.148;2023-04-25T05:32:31;9.80;93.50
62581;DHT22;48640;48.770;9.148;2023-04-25T05:34:58;9.80;93.50
62581;DHT22;48640;48.770;9.148;2023-04-25T05:37:25;9.60;93.30
62581;DHT22;48640;48.770;9.148;2023-04-25T05:39:53;9.70;93.30
62581;DHT22;48640;48.770;9.148;2023-04-25T05:42:20;10.00;92.30
62581;DHT22;48640;48.770;9.148;2023-04-25T05:44:47;9.60;92.70
62581;DHT22;48640;48.770;9.148;2023-04-25T05:47:13;9.50;92.50
62581;DHT22;48640;48.770;9.148;2023-04-25T05:49:40;9.70;92.40
62581;DHT22;48640;48.770;9.148;2023-04-25T05:52:07;10.10;91.30
62581;DHT22;48640;48.770;9.148;2023-04-25T05:54:34;9.90;91.40
62581;DHT22;48640;48.770;9.148;2023-04-25T05:57:02;9.80;91.50
62581;DHT22;48640;48.770;9.148;2023-04-25T05:59:29;10.30;90.70
62581;DHT22;48640;48.770;9.148;2023-04-25T06:01:56;9.80;90.90
62581;DHT22;48640;48.770;9.148;2023-04-25T06:04:22;9.90;91.20
62581;DHT22;48640;48.770;9.148;2023-04-25T06:06:49;9.40;91.00
62581;DHT22;48640;48.770;9.148;2023-04-25T06:09:16;9.20;91.10
62581;DHT22;48640;48.770;9.148;2023-04-25T06:11:43;9.20;91.30
62581;DHT22;48640;48.770;9.148;2023-04-25T06:14:11;9.60;91.90
62581;DHT22;48640;48.770;9.148;2023-04-25T06:16:38;9.20;91.70
62581;DHT22;48640;48.770;9.148;2023-04-25T06:19:05;9.30;91.80
62581;DHT22;48640;48.770;9.148;2023-04-25T06:21:31;9.30;92.10
62581;DHT22;48640;48.770;9.148;2023-04-25T06:23:58;9.10;91.60
62581;DHT22;48640;48.770;9.148;2023-04-25T06:26:25;9.30;92.20
62581;DHT22;48640;48.770;9.148;2023-04-25T06:28:52;9.40;93.30
62581;DHT22;48640;48.770;9.148;2023-04-25T06:31:20;9.30;94.20
62581;DHT22;48640;48.770;9.148;2023-04-25T06:33:47;9.30;94.90
62581;DHT22;48640;48.770;9.148;2023-04-25T06:36:14;9.90;94.80
62581;DHT22;48640;48.770;9.148;2023-04-25T06:38:40;9.70;94.60
62581;DHT22;48640;48.770;9.148;2023-04-25T06:41:07;9.40;95.00
62581;DHT22;48640;48.770;9.148;2023-04-25T06:43:34;9.10;95.50
62581;DHT22;48640;48.770;9.148;2023-04-25T06:46:01;9.30;95.80
62581;DHT22;48640;48.770;9.148;2023-04-25T06:48:29;9.20;96.30
62581;DHT22;48640;48.770;9.148;2023-04-25T06:50:56;9.10;96.50
62581;DHT22;48640;48.770;9.148;2023-04-25T06:53:23;9.20;96.50
62581;DHT22;48640;48.770;9.148;2023-04-25T06:55:50;8.90;96.60
62581;DHT22;48640;48.770;9.148;2023-04-25T06:58:17;9.40;97.20
62581;DHT22;48640;48.770;9.148;2023-04-25T07:00:44;9.50;96.80
62581;DHT22;48640;48.770;9.148;2023-04-25T07:03:11;9.20;96.70
62581;DHT22;48640;48.770;9.148;2023-04-25T07:05:39;9.50;96.80
62581;DHT22;48640;48.770;9.148;2023-04-25T07:08:05;9.10;96.70
62581;DHT22;48640;48.770;9.148;2023-04-25T07:10:32;9.10;97.50
62581;DHT22;48640;48.770;9.148;2023-04-25T07:12:59;9.20;97.50
62581;DHT22;48640;48.770;9.148;2023-04-25T07:15:26;9.30;97.20
62581;DHT22;48640;48.770;9.148;2023-04-25T07:17:53;10.20;96.90
62581;DHT22;48640;48.770;9.148;2023-04-25T07:20:20;9.30;97.00
62581;DHT22;48640;48.770;9.148;2023-04-25T07:22:48;9.60;97.00
62581;DHT22;48640;48.770;9.148;2023-04-25T07:25:15;9.20;97.00
62581;DHT22;48640;48.770;9.148;2023-04-25T07:27:42;9.60;97.50
62581;DHT22;48640;48.770;9.148;2023-04-25T07:30:10;9.60;97.60
62581;DHT22;48640;48.770;9.148;2023-04-25T07:32:38;9.70;98.10
62581;DHT22;48640;48.770;9.148;2023-04-25T07:35:05;9.30;97.80
62581;DHT22;48640;48.770;9.148;2023-04-25T07:37:33;9.90;98.00
62581;DHT22;48640;48.770;9.148;2023-04-25T07:40:01;9.70;98.20
62581;DHT22;48640;48.770;9.148;2023-04-25T07:42:30;9.80;98.70
62581;DHT22;48640;48.770;9.148;2023-04-25T07:44:57;9.80;99.00
62581;DHT22;48640;48.770;9.148;2023-04-25T07:47:24;9.40;99.40
62581;DHT22;48640;48.770;9.148;2023-04-25T07:49:50;9.40;99.50
62581;DHT22;48640;48.770;9.148;2023-04-25T07:52:17;10.10;98.60
62581;DHT22;48640;48.770;9.148;2023-04-25T07:54:44;9.40;98.60
62581;DHT22;48640;48.770;9.148;2023-04-25T07:57:12;9.70;99.50
62581;DHT22;48640;48.770;9.148;2023-04-25T07:59:39;9.20;98.60
62581;DHT22;48640;48.770;9.148;2023-04-25T08:02:06;9.10;98.70
62581;DHT22;48640;48.770;9.148;2023-04-25T08:04:33;9.30;99.00
62581;DHT22;48640;48.770;9.148;2023-04-25T08:07:00;9.10;99.20
62581;DHT22;48640;48.770;9.148;2023-04-25T08:09:27;9.60;99.40
62581;DHT22;48640;48.770;9.148;2023-04-25T08:11:54;9.60;99.60
62581;DHT22;48640;48.770;9.148;2023-04-25T08:14:22;9.30;99.70
62581;DHT22;48640;48.770;9.148;2023-04-25T08:16:49;8.80;99.70
62581;DHT22;48640;48.770;9.148;2023-04-25T08:19:16;9.30;99.90
62581;DHT22;48640;48.770;9.148;2023-04-25T08:21:43;9.20;99.90
62581;DHT22;48640;48.770;9.148;2023-04-25T08:24:10;8.80;99.90
62581;DHT22;48640;48.770;9.148;2023-04-25T08:26:37;9.10;99.90
62581;DHT22;48640;48.770;9.148;2023-04-25T08:29:04;9.20;99.90
62581;DHT22;48640;48.770;9.148;2023-04-25T08:31:33;8.80;99.90
62581;DHT22;48640;48.770;9.148;2023-04-25T08:34:00;9.40;99.90
62581;DHT22;48640;48.770;9.148;2023-04-25T08:36:27;9.40;99.90
62581;DHT22;48640;48.770;9.148;2023-04-25T08:38:54;9.10;99.90
62581;DHT22;48640;48.770;9.148;2023-04-25T08:41:21;9.30;99.90
62581;DHT22;48640;48.770;9.148;2023-04-25T08:43:49;8.80;99.90
62581;DHT22;48640;48.770;9.148;2023-04-25T08:46:17;9.30;99.90
62581;DHT22;48640;48.770;9.148;2023-04-25T08:48:46;9.40;99.90
62581;DHT22;48640;48.770;9.148;2023-04-25T08:51:17;9.40;99.90
62581;DHT22;48640;48.770;9.148;2023-04-25T08:53:46;9.00;99.90
62581;DHT22;48640;48.770;9.148;2023-04-25T08:56:17;8.90;99.90
62581;DHT22;48640;48.770;9.148;2023-04-25T08:58:47;9.50;99.90
62581;DHT22;48640;48.770;9.148;2023-04-25T09:01:14;9.10;99.90
62581;DHT22;48640;48.770;9.148;2023-04-25T09:03:42;8.80;99.90
62581;DHT22;48640;48.770;9.148;2023-04-25T09:06:11;8.70;99.90
62581;DHT22;48640;48.770;9.148;2023-04-25T09:08:38;8.90;99.90
62581;DHT22;48640;48.770;9.148;2023-04-25T09:11:06;9.20;99.90
62581;DHT22;48640;48.770;9.148;2023-04-25T09:13:33;9.10;99.90
62581;DHT22;48640;48.770;9.148;2023-04-25T09:15:59;8.40;99.90
62581;DHT22;48640;48.770;9.148;2023-04-25T09:18:28;8.70;99.90
62581;DHT22;48640;48.770;9.148;2023-04-25T09:21:05;8.90;99.90
62581;DHT22;48640;48.770;9.148;2023-04-25T09:23:39;9.00;99.90
62581;DHT22;48640;48.770;9.148;2023-04-25T09:26:07;8.80;99.90
62581;DHT22;48640;48.770;9.148;2023-04-25T09:28:34;8.80;99.90
62581;DHT22;48640;48.770;9.148;2023-04-25T09:31:03;9.50;99.90
62581;DHT22;48640;48.770;9.148;2023-04-25T09:33:31;8.90;99.90
62581;DHT22;48640;48.770;9.148;2023-04-25T09:36:03;9.60;99.90
62581;DHT22;48640;48.770;9.148;2023-04-25T09:38:31;9.50;99.90
62581;DHT22;48640;48.770;9.148;2023-04-25T09:40:59;9.10;99.90
62581;DHT22;48640;48.770;9.148;2023-04-25T09:43:27;9.20;99.70
62581;DHT22;48640;48.770;9.148;2023-04-25T09:45:55;9.50;99.90
62581;DHT22;48640;48.770;9.148;2023-04-25T09:48:25;9.60;99.60
62581;DHT22;48640;48.770;9.148;2023-04-25T09:51:04;9.20;99.90
62581;DHT22;48640;48.770;9.148;2023-04-25T09:53:31;9.50;99.70
62581;DHT22;48640;48.770;9.148;2023-04-25T09:56:00;9.70;99.90
62581;DHT22;48640;48.770;9.148;2023-04-25T09:58:31;9.60;99.90
62581;DHT22;48640;48.770;9.148;2023-04-25T10:01:01;9.60;99.90
62581;DHT22;48640;48.770;9.148;2023-04-25T10:03:30;9.50;99.90
62581;DHT22;48640;48.770;9.148;2023-04-25T10:05:59;9.00;99.40
62581;DHT22;48640;48.770;9.148;2023-04-25T10:08:31;8.90;99.80
62581;DHT22;48640;48.770;9.148;2023-04-25T10:11:01;9.60;99.90
62581;DHT22;48640;48.770;9.148;2023-04-25T10:13:28;9.50;99.90
62581;DHT22;48640;48.770;9.148;2023-04-25T10:15:57;9.10;99.30
62581;DHT22;48640;48.770;9.148;2023-04-25T10:18:25;9.30;99.90
62581;DHT22;48640;48.770;9.148;2023-04-25T10:20:53;9.90;99.70
62581;DHT22;48640;48.770;9.148;2023-04-25T10:23:20;9.40;99.10
62581;DHT22;48640;48.770;9.148;2023-04-25T10:25:48;9.00;99.20
62581;DHT22;48640;48.770;9.148;2023-04-25T10:28:17;9.00;99.10
62581;DHT22;48640;48.770;9.148;2023-04-25T10:30:57;9.40;98.80
62581;DHT22;48640;48.770;9.148;2023-04-25T10:33:30;9.50;99.60
62581;DHT22;48640;48.770;9.148;2023-04-25T10:35:58;9.00;99.90
62581;DHT22;48640;48.770;9.148;2023-04-25T10:38:26;9.20;99.90
62581;DHT22;48640;48.770;9.148;2023-04-25T10:41:03;9.40;99.90
62581;DHT22;48640;48.770;9.148;2023-04-25T10:43:36;9.50;99.90
62581;DHT22;48640;48.770;9.148;2023-04-25T10:46:16;9.40;99.90
62581;DHT22;48640;48.770;9.148;2023-04-25T10:48:47;9.40;99.90
62581;DHT22;48640;48.770;9.148;2023-04-25T10:51:20;8.80;99.90
62581;DHT22;48640;48.770;9.148;2023-04-25T10:53:47;9.10;99.90
62581;DHT22;48640;48.770;9.148;2023-04-25T10:56:24;8.70;99.90
62581;DHT22;48640;48.770;9.148;2023-04-25T10:59:03;8.90;99.90
62581;DHT22;48640;48.770;9.148;2023-04-25T11:01:36;8.80;99.90
62581;DHT22;48640;48.770;9.148;2023-04-25T11:04:04;9.00;99.90
62581;DHT22;48640;48.770;9.148;2023-04-25T11:06:37;8.60;99.90
62581;DHT22;48640;48.770;9.148;2023-04-25T11:09:11;8.50;99.90
62581;DHT22;48640;48.770;9.148;2023-04-25T11:11:39;8.30;99.90
62581;DHT22;48640;48.770;9.148;2023-04-25T11:14:07;8.90;99.90
62581;DHT22;48640;48.770;9.148;2023-04-25T11:16:34;8.50;99.90
62581;DHT22;48640;48.770;9.148;2023-04-25T11:19:01;8.80;99.90
62581;DHT22;48640;48.770;9.148;2023-04-25T11:21:29;8.90;99.90
62581;DHT22;48640;48.770;9.148;2023-04-25T11:23:57;8.50;99.90
62581;DHT22;48640;48.770;9.148;2023-04-25T11:26:24;8.90;99.90
62581;DHT22;48640;48.770;9.148;2023-04-25T11:28:51;9.30;99.90
62581;DHT22;48640;48.770;9.148;2023-04-25T11:31:25;9.40;99.60
62581;DHT22;48640;48.770;9.148;2023-04-25T11:33:53;8.90;99.80
62581;DHT22;48640;48.770;9.148;2023-04-25T11:36:20;9.00;99.80
62581;DHT22;48640;48.770;9.148;2023-04-25T11:38:47;9.70;99.90
62581;DHT22;48640;48.770;9.148;2023-04-25T11:41:13;9.70;99.90
62581;DHT22;48640;48.770;9.148;2023-04-25T11:43:40;9.40;98.60
62581;DHT22;48640;48.770;9.148;2023-04-25T11:46:09;9.60;97.50
62581;DHT22;48640;48.770;9.148;2023-04-25T11:48:38;9.80;97.20
62581;DHT22;48640;48.770;9.148;2023-04-25T11:51:05;9.30;96.60
62581;DHT22;48640;48.770;9.148;2023-04-25T11:53:32;9.50;97.40
62581;DHT22;48640;48.770;9.148;2023-04-25T11:55:59;9.90;96.70
62581;DHT22;48640;48.770;9.148;2023-04-25T11:58:26;9.40;96.30
62581;DHT22;48640;48.770;9.148;2023-04-25T12:00:53;10.00;97.00
62581;DHT22;48640;48.770;9.148;2023-04-25T12:03:24;9.20;96.90
62581;DHT22;48640;48.770;9.148;2023-04-25T12:06:02;9.50;97.50
62581;DHT22;48640;48.770;9.148;2023-04-25T12:08:30;9.50;96.20
62581;DHT22;48640;48.770;9.148;2023-04-25T12:10:58;9.40;96.00
62581;DHT22;48640;48.770;9.148;2023-04-25T12:13:26;9.50;97.10
62581;DHT22;48640;48.770;9.148;2023-04-25T12:15:54;9.40;98.00
62581;DHT22;48640;48.770;9.148;2023-04-25T12:18:24;9.40;98.90
62581;DHT22;48640;48.770;9.148;2023-04-25T12:20:54;9.80;98.80
62581;DHT22;48640;48.770;9.148;2023-04-25T12:23:25;9.90;98.50
62581;DHT22;48640;48.770;9.148;2023-04-25T12:25:53;9.90;98.50
62581;DHT22;48640;48.770;9.148;2023-04-25T12:28:21;10.00;98.20
62581;DHT22;48640;48.770;9.148;2023-04-25T12:30:59;9.80;97.50
62581;DHT22;48640;48.770;9.148;2023-04-25T12:33:28;9.60;97.70
62581;DHT22;48640;48.770;9.148;2023-04-25T12:35:57;9.50;98.00
62581;DHT22;48640;48.770;9.148;2023-04-25T12:38:26;9.40;97.00
62581;DHT22;48640;48.770;9.148;2023-04-25T12:40:54;9.70;96.80
62581;DHT22;48640;48.770;9.148;2023-04-25T12:43:24;9.60;97.20
62581;DHT22;48640;48.770;9.148;2023-04-25T12:45:52;10.40;97.20
62581;DHT22;48640;48.770;9.148;2023-04-25T12:48:19;10.40;97.60
62581;DHT22;48640;48.770;9.148;2023-04-25T12:50:47;10.70;96.70
62581;DHT22;48640;48.770;9.148;2023-04-25T12:53:17;11.10;95.50
62581;DHT22;48640;48.770;9.148;2023-04-25T12:55:44;11.30;94.10
62581;DHT22;48640;48.770;9.148;2023-04-25T12:58:12;11.50;93.50
62581;DHT22;48640;48.770;9.148;2023-04-25T13:00:39;11.50;94.60
62581;DHT22;48640;48.770;9.148;2023-04-25T13:03:06;11.60;92.40
62581;DHT22;48640;48.770;9.148;2023-04-25T13:05:32;11.40;91.70
62581;DHT22;48640;48.770;9.148;2023-04-25T13:07:59;11.60;91.70
62581;DHT22;48640;48.770;9.148;2023-04-25T13:10:28;12.40;92.30
62581;DHT22;48640;48.770;9.148;2023-04-25T13:12:55;11.80;91.90
62581;DHT22;48640;48.770;9.148;2023-04-25T13:15:22;12.40;91.90
62581;DHT22;48640;48.770;9.148;2023-04-25T13:17:49;13.10;92.60
62581;DHT22;48640;48.770;9.148;2023-04-25T13:20:16;13.00;90.80
62581;DHT22;48640;48.770;9.148;2023-04-25T13:22:44;12.40;88.40
62581;DHT22;48640;48.770;9.148;2023-04-25T13:25:12;12.30;88.80
62581;DHT22;48640;48.770;9.148;2023-04-25T13:27:40;12.10;90.90
62581;DHT22;48640;48.770;9.148;2023-04-25T13:30:07;11.80;90.80
62581;DHT22;48640;48.770;9.148;2023-04-25T13:32:34;12.00;91.40
62581;DHT22;48640;48.770;9.148;2023-04-25T13:35:03;12.10;92.40
62581;DHT22;48640;48.770;9.148;2023-04-25T13:37:30;11.90;92.40
62581;DHT22;48640;48.770;9.148;2023-04-25T13:39:59;11.90;91.80
62581;DHT22;48640;48.770;9.148;2023-04-25T13:42:26;11.80;91.30
62581;DHT22;48640;48.770;9.148;2023-04-25T13:44:54;12.20;92.10
62581;DHT22;48640;48.770;9.148;2023-04-25T13:47:20;11.80;92.30
62581;DHT22;48640;48.770;9.148;2023-04-25T13:49:48;12.00;92.70
62581;DHT22;48640;48.770;9.148;2023-04-25T13:52:15;11.60;93.10
62581;DHT22;48640;48.770;9.148;2023-04-25T13:54:42;11.60;93.30
62581;DHT22;48640;48.770;9.148;2023-04-25T13:57:08;11.60;92.60
62581;DHT22;48640;48.770;9.148;2023-04-25T13:59:36;11.50;92.90
62581;DHT22;48640;48.770;9.148;2023-04-25T14:02:05;11.90;92.10
62581;DHT22;48640;48.770;9.148;2023-04-25T14:04:31;11.60;91.50
62581;DHT22;48640;48.770;9.148;2023-04-25T14:06:58;11.70;92.70
62581;DHT22;48640;48.770;9.148;2023-04-25T14:09:25;11.70;91.70
62581;DHT22;48640;48.770;9.148;2023-04-25T14:11:52;11.70;92.20
62581;DHT22;48640;48.770;9.148;2023-04-25T14:14:19;11.70;92.80
62581;DHT22;48640;48.770;9.148;2023-04-25T14:16:46;12.50;92.10
62581;DHT22;48640;48.770;9.148;2023-04-25T14:19:15;12.50;90.70
62581;DHT22;48640;48.770;9.148;2023-04-25T14:21:42;12.80;88.80
62581;DHT22;48640;48.770;9.148;2023-04-25T14:24:10;12.40;88.80
62581;DHT22;48640;48.770;9.148;2023-04-25T14:26:37;12.10;89.30
62581;DHT22;48640;48.770;9.148;2023-04-25T14:29:05;12.00;87.50
62581;DHT22;48640;48.770;9.148;2023-04-25T14:31:32;12.10;88.50
62581;DHT22;48640;48.770;9.148;2023-04-25T14:33:59;12.30;86.30
62581;DHT22;48640;48.770;9.148;2023-04-25T14:36:28;12.60;85.70
62581;DHT22;48640;48.770;9.148;2023-04-25T14:38:56;12.20;86.50
62581;DHT22;48640;48.770;9.148;2023-04-25T14:41:22;12.30;85.30
62581;DHT22;48640;48.770;9.148;2023-04-25T14:43:50;12.10;85.40
62581;DHT22;48640;48.770;9.148;2023-04-25T14:46:18;11.60;87.10
62581;DHT22;48640;48.770;9.148;2023-04-25T14:48:46;11.90;90.00
62581;DHT22;48640;48.770;9.148;2023-04-25T14:51:13;11.60;90.10
62581;DHT22;48640;48.770;9.148;2023-04-25T14:53:41;11.70;89.30
62581;DHT22;48640;48.770;9.148;2023-04-25T14:56:08;12.00;88.10
62581;DHT22;48640;48.770;9.148;2023-04-25T14:58:35;12.30;87.10
62581;DHT22;48640;48.770;9.148;2023-04-25T15:01:02;11.80;86.70
62581;DHT22;48640;48.770;9.148;2023-04-25T15:03:29;11.80;87.80
62581;DHT22;48640;48.770;9.148;2023-04-25T15:05:55;12.00;88.60
62581;DHT22;48640;48.770;9.148;2023-04-25T15:08:22;12.00;88.60
62581;DHT22;48640;48.770;9.148;2023-04-25T15:10:50;12.30;86.90
62581;DHT22;48640;48.770;9.148;2023-04-25T15:13:18;12.40;86.30
62581;DHT22;48640;48.770;9.148;2023-04-25T15:15:45;12.50;84.60
62581;DHT22;48640;48.770;9.148;2023-04-25T15:18:16;12.50;83.80
62581;DHT22;48640;48.770;9.148;2023-04-25T15:20:43;12.90;83.80
62581;DHT22;48640;48.770;9.148;2023-04-25T15:23:11;12.90;86.20
62581;DHT22;48640;48.770;9.148;2023-04-25T15:25:37;12.30;89.40
62581;DHT22;48640;48.770;9.148;2023-04-25T15:28:06;12.70;86.20
62581;DHT22;48640;48.770;9.148;2023-04-25T15:30:32;12.00;84.10
62581;DHT22;48640;48.770;9.148;2023-04-25T15:32:59;12.00;86.00
62581;DHT22;48640;48.770;9.148;2023-04-25T15:35:26;11.60;85.70
62581;DHT22;48640;48.770;9.148;2023-04-25T15:37:53;11.60;84.90
62581;DHT22;48640;48.770;9.148;2023-04-25T15:40:19;11.50;87.50
62581;DHT22;48640;48.770;9.148;2023-04-25T15:42:48;11.90;86.00
62581;DHT22;48640;48.770;9.148;2023-04-25T15:45:18;12.20;88.90